createdAt,value
2023-09-25T00:00:33.308Z,1.80
2023-09-25T00:03:01.578Z,1.67
2023-09-25T00:05:29.370Z,1.60
2023-09-25T00:07:56.685Z,1.50
2023-09-25T00:10:24.560Z,1.47
2023-09-25T00:12:51.421Z,1.37
2023-09-25T00:15:18.237Z,1.87
2023-09-25T00:17:45.123Z,1.57
2023-09-25T00:20:12.844Z,1.50
2023-09-25T00:22:42.631Z,1.50
2023-09-25T00:25:09.524Z,1.70
2023-09-25T00:27:36.393Z,1.40
2023-09-25T00:30:09.481Z,1.60
2023-09-25T00:32:37.021Z,1.70
2023-09-25T00:35:07.374Z,1.60
2023-09-25T00:37:34.052Z,1.53
2023-09-25T00:40:02.177Z,1.30
2023-09-25T00:42:28.861Z,1.13
2023-09-25T00:44:55.442Z,1.80
2023-09-25T00:47:22.526Z,1.53
2023-09-25T00:49:49.191Z,1.60
2023-09-25T00:52:16.128Z,1.37
2023-09-25T00:54:43.157Z,1.60
2023-09-25T00:57:11.424Z,1.50
2023-09-25T00:59:40.571Z,1.77
2023-09-25T01:02:07.459Z,1.77
2023-09-25T01:04:34.444Z,1.30
2023-09-25T01:07:01.775Z,1.67
2023-09-25T01:09:28.710Z,1.50
2023-09-25T01:11:55.456Z,1.53
2023-09-25T01:14:22.173Z,1.73
2023-09-25T01:16:49.171Z,1.60
2023-09-25T01:19:16.011Z,1.37
2023-09-25T01:21:47.550Z,1.57
2023-09-25T01:24:14.250Z,1.70
2023-09-25T01:26:41.008Z,1.30
2023-09-25T01:29:07.962Z,1.00
2023-09-25T01:31:34.824Z,1.23
2023-09-25T01:34:01.684Z,1.60
2023-09-25T01:36:28.407Z,1.47
2023-09-25T01:38:55.015Z,1.63
2023-09-25T01:41:21.975Z,1.47
2023-09-25T01:43:48.576Z,1.83
2023-09-25T01:46:15.267Z,1.50
2023-09-25T01:48:42.067Z,1.53
2023-09-25T01:51:10.467Z,1.70
2023-09-25T01:53:37.507Z,1.13
2023-09-25T01:56:16.326Z,1.20
2023-09-25T01:58:43.579Z,1.37
2023-09-25T02:01:10.370Z,1.20
2023-09-25T02:03:37.516Z,1.33
2023-09-25T02:06:05.090Z,1.40
2023-09-25T02:08:32.479Z,1.40
2023-09-25T02:10:59.323Z,1.30
2023-09-25T02:13:26.209Z,1.33
2023-09-25T02:15:52.955Z,1.80
2023-09-25T02:18:20.046Z,1.50
2023-09-25T02:20:47.302Z,2.17
2023-09-25T02:23:14.117Z,1.60
2023-09-25T02:25:40.884Z,1.50
2023-09-25T02:28:07.548Z,1.43
2023-09-25T02:30:34.727Z,1.40
2023-09-25T02:33:02.057Z,1.20
2023-09-25T02:35:28.783Z,1.60
2023-09-25T02:37:55.411Z,1.40
2023-09-25T02:40:22.032Z,1.40
2023-09-25T02:42:48.933Z,1.30
2023-09-25T02:45:16.297Z,1.47
2023-09-25T02:47:43.760Z,1.50
2023-09-25T02:50:10.980Z,1.47
2023-09-25T02:52:37.847Z,1.00
2023-09-25T02:55:05.203Z,1.43
2023-09-25T02:57:31.971Z,1.30
2023-09-25T02:59:58.636Z,1.53
2023-09-25T03:02:27.109Z,1.50
2023-09-25T03:04:55.366Z,1.67
2023-09-25T03:07:22.395Z,1.50
2023-09-25T03:09:49.618Z,1.13
2023-09-25T03:12:16.469Z,1.90
2023-09-25T03:14:43.815Z,1.23
2023-09-25T03:17:10.582Z,1.30
2023-09-25T03:19:37.316Z,1.20
2023-09-25T03:22:04.087Z,1.20
2023-09-25T03:24:31.561Z,1.37
2023-09-25T03:26:58.352Z,1.13
2023-09-25T03:29:25.144Z,1.20
2023-09-25T03:31:51.730Z,1.47
2023-09-25T03:34:18.383Z,1.67
2023-09-25T03:36:45.053Z,1.60
2023-09-25T03:39:11.987Z,1.70
2023-09-25T03:41:38.620Z,1.37
2023-09-25T03:44:05.734Z,1.47
2023-09-25T03:46:32.473Z,1.30
2023-09-25T03:49:02.792Z,1.50
2023-09-25T03:51:29.540Z,1.20
2023-09-25T03:53:56.169Z,1.37
2023-09-25T03:56:22.742Z,1.40
2023-09-25T03:58:49.553Z,1.50
2023-09-25T04:01:16.570Z,1.20
2023-09-25T04:03:43.251Z,1.60
2023-09-25T04:06:10.506Z,1.50
2023-09-25T04:08:37.179Z,1.30
2023-09-25T04:11:04.377Z,1.30
2023-09-25T04:13:32.531Z,1.57
2023-09-25T04:15:59.419Z,1.60
2023-09-25T04:18:26.162Z,1.57
2023-09-25T04:20:52.925Z,1.27
2023-09-25T04:23:20.235Z,1.57
2023-09-25T04:25:53.199Z,1.50
2023-09-25T04:28:21.122Z,1.40
2023-09-25T04:30:47.790Z,1.43
2023-09-25T04:33:14.479Z,1.60
2023-09-25T04:35:41.270Z,1.40
2023-09-25T04:38:09.198Z,1.30
2023-09-25T04:40:35.835Z,1.30
2023-09-25T04:43:02.684Z,1.47
2023-09-25T04:45:30.861Z,1.67
2023-09-25T04:47:58.522Z,1.53
2023-09-25T04:50:25.247Z,1.27
2023-09-25T04:52:51.853Z,1.57
2023-09-25T04:55:18.590Z,1.20
2023-09-25T04:57:47.866Z,1.73
2023-09-25T05:00:26.293Z,1.30
2023-09-25T05:02:55.389Z,1.13
2023-09-25T05:05:23.281Z,1.40
2023-09-25T05:07:51.802Z,1.40
2023-09-25T05:10:23.479Z,1.53
2023-09-25T05:12:51.107Z,1.50
2023-09-25T05:15:18.614Z,1.20
2023-09-25T05:17:46.475Z,1.30
2023-09-25T05:20:19.271Z,1.30
2023-09-25T05:22:48.255Z,1.37
2023-09-25T05:25:15.924Z,1.40
2023-09-25T05:27:50.931Z,1.60
2023-09-25T05:30:18.881Z,1.10
2023-09-25T05:32:51.134Z,1.10
2023-09-25T05:35:19.095Z,1.60
2023-09-25T05:37:47.177Z,1.83
2023-09-25T05:40:15.219Z,1.40
2023-09-25T05:42:44.510Z,1.10
2023-09-25T05:45:15.399Z,1.20
2023-09-25T05:47:42.932Z,1.77
2023-09-25T05:50:10.223Z,1.40
2023-09-25T05:52:38.066Z,1.70
2023-09-25T05:55:06.077Z,1.40
2023-09-25T05:57:32.932Z,1.20
2023-09-25T06:00:19.657Z,1.13
2023-09-25T06:02:47.489Z,1.37
2023-09-25T06:05:14.581Z,1.30
2023-09-25T06:07:41.381Z,1.37
2023-09-25T06:10:09.255Z,1.10
2023-09-25T06:12:36.991Z,1.40
2023-09-25T06:15:06.704Z,1.20
2023-09-25T06:17:33.436Z,1.20
2023-09-25T06:20:00.155Z,1.47
2023-09-25T06:22:27.405Z,1.50
2023-09-25T06:24:54.258Z,1.40
2023-09-25T06:27:20.910Z,1.40
2023-09-25T06:29:47.651Z,1.50
2023-09-25T06:32:14.341Z,1.00
2023-09-25T06:34:41.161Z,1.13
2023-09-25T06:37:07.977Z,1.57
2023-09-25T06:39:34.893Z,1.17
2023-09-25T06:42:01.692Z,1.07
2023-09-25T06:44:28.603Z,1.17
2023-09-25T06:46:55.422Z,1.07
2023-09-25T06:49:23.381Z,1.00
2023-09-25T06:51:50.216Z,1.40
2023-09-25T06:54:17.139Z,1.77
2023-09-25T06:56:43.831Z,1.17
2023-09-25T06:59:10.409Z,0.90
2023-09-25T07:01:37.139Z,1.00
2023-09-25T07:04:04.094Z,1.03
2023-09-25T07:06:31.293Z,1.47
2023-09-25T07:08:58.553Z,1.10
2023-09-25T07:11:25.211Z,0.97
2023-09-25T07:13:51.891Z,1.07
2023-09-25T07:16:18.585Z,0.90
2023-09-25T07:18:47.512Z,1.37
2023-09-25T07:21:16.562Z,0.90
2023-09-25T07:23:43.411Z,1.30
2023-09-25T07:26:10.324Z,1.17
2023-09-25T07:28:37.670Z,1.00
2023-09-25T07:31:06.257Z,1.30
2023-09-25T07:33:33.770Z,1.10
2023-09-25T07:36:02.955Z,1.00
2023-09-25T07:38:32.160Z,1.10
2023-09-25T07:41:02.000Z,1.23
2023-09-25T07:43:56.981Z,1.10
2023-09-25T07:46:20.584Z,0.90
2023-09-25T07:48:48.529Z,1.20
2023-09-25T07:51:15.535Z,1.07
2023-09-25T07:53:45.748Z,1.00
2023-09-25T07:56:12.593Z,1.13
2023-09-25T07:58:40.903Z,1.23
2023-09-25T08:01:09.864Z,1.23
2023-09-25T08:03:39.078Z,1.30
2023-09-25T08:06:06.862Z,0.73
2023-09-25T08:08:35.173Z,1.00
2023-09-25T08:11:02.690Z,1.10
2023-09-25T08:13:30.581Z,1.23
2023-09-25T08:16:05.178Z,1.37
2023-09-25T08:18:31.970Z,1.00
2023-09-25T08:20:58.687Z,1.50
2023-09-25T08:23:25.245Z,1.03
2023-09-25T08:25:51.881Z,1.20
2023-09-25T08:28:19.437Z,1.53
2023-09-25T08:30:46.230Z,1.20
2023-09-25T08:33:13.190Z,1.17
2023-09-25T08:35:43.328Z,1.43
2023-09-25T08:38:10.266Z,1.30
2023-09-25T08:40:44.592Z,1.00
2023-09-25T08:43:20.226Z,1.30
2023-09-25T08:45:49.353Z,1.10
2023-09-25T08:48:17.919Z,1.20
2023-09-25T08:50:45.529Z,1.13
2023-09-25T08:53:12.339Z,1.00
2023-09-25T08:55:39.284Z,1.37
2023-09-25T08:58:09.664Z,1.23
2023-09-25T09:00:36.659Z,1.50
2023-09-25T09:03:03.783Z,0.90
2023-09-25T09:05:30.520Z,1.13
2023-09-25T09:08:06.660Z,1.17
2023-09-25T09:10:38.495Z,1.00
2023-09-25T09:13:09.784Z,1.53
2023-09-25T09:15:36.797Z,1.10
2023-09-25T09:18:30.332Z,1.37
2023-09-25T09:20:57.280Z,1.00
2023-09-25T09:23:41.289Z,1.10
2023-09-25T09:26:13.207Z,1.30
2023-09-25T09:28:41.454Z,1.03
2023-09-25T09:31:08.850Z,1.47
2023-09-25T09:33:42.497Z,1.40
2023-09-25T09:36:16.616Z,1.30
2023-09-25T09:38:44.434Z,1.37
2023-09-25T09:41:11.042Z,1.13
2023-09-25T09:43:38.358Z,1.27
2023-09-25T09:46:05.728Z,1.10
2023-09-25T09:48:33.438Z,1.30
2023-09-25T09:51:04.908Z,1.40
2023-09-25T09:53:37.534Z,0.93
2023-09-25T09:56:04.337Z,1.10
2023-09-25T09:58:32.126Z,1.10
2023-09-25T10:01:01.530Z,1.10
2023-09-25T10:03:30.370Z,1.07
2023-09-25T10:05:57.350Z,1.03
2023-09-25T10:08:23.960Z,1.10
2023-09-25T10:10:52.975Z,0.93
2023-09-25T10:13:26.987Z,1.13
2023-09-25T10:15:59.224Z,1.07
2023-09-25T10:18:30.086Z,1.30
2023-09-25T10:21:11.328Z,0.90
2023-09-25T10:23:49.034Z,1.13
2023-09-25T10:26:20.816Z,1.07
2023-09-25T10:29:13.720Z,1.10
2023-09-25T10:31:46.605Z,1.20
2023-09-25T10:34:13.242Z,1.30
2023-09-25T10:36:43.474Z,1.30
2023-09-25T10:39:14.377Z,1.30
2023-09-25T10:41:42.540Z,1.17
2023-09-25T10:44:13.267Z,1.13
2023-09-25T10:46:41.039Z,1.20
2023-09-25T10:49:09.872Z,1.00
2023-09-25T10:51:37.023Z,1.00
2023-09-25T10:54:04.502Z,1.00
2023-09-25T10:56:31.639Z,1.30
2023-09-25T10:58:58.465Z,1.43
2023-09-25T11:01:28.351Z,1.27
2023-09-25T11:03:57.606Z,1.00
2023-09-25T11:06:24.910Z,1.07
2023-09-25T11:09:16.005Z,1.10
2023-09-25T11:11:43.692Z,1.07
2023-09-25T11:14:10.660Z,1.13
2023-09-25T11:16:38.023Z,1.43
2023-09-25T11:19:06.647Z,1.80
2023-09-25T11:21:33.420Z,1.27
2023-09-25T11:24:00.106Z,0.90
2023-09-25T11:26:30.706Z,1.07
2023-09-25T11:28:58.590Z,1.20
2023-09-25T11:31:27.673Z,1.20
2023-09-25T11:33:56.150Z,1.00
2023-09-25T11:36:22.839Z,0.90
2023-09-25T11:38:51.133Z,1.03
2023-09-25T11:41:17.933Z,1.40
2023-09-25T11:43:44.595Z,1.23
2023-09-25T11:46:11.316Z,1.27
2023-09-25T11:48:39.301Z,1.17
2023-09-25T11:51:06.691Z,1.30
2023-09-25T11:53:33.266Z,1.30
2023-09-25T11:56:00.396Z,1.30
2023-09-25T11:58:31.391Z,1.10
2023-09-25T12:00:58.105Z,1.13
2023-09-25T12:03:24.846Z,0.93
2023-09-25T12:05:51.686Z,0.90
2023-09-25T12:08:19.055Z,1.27
2023-09-25T12:10:46.152Z,1.30
2023-09-25T12:13:12.912Z,1.33
2023-09-25T12:15:39.793Z,1.00
2023-09-25T12:18:07.647Z,1.00
2023-09-25T12:20:38.827Z,1.20
2023-09-25T12:23:08.138Z,0.83
2023-09-25T12:25:35.849Z,0.87
2023-09-25T12:28:03.534Z,1.10
2023-09-25T12:30:30.435Z,1.10
2023-09-25T12:32:57.481Z,1.13
2023-09-25T12:35:24.121Z,1.00
2023-09-25T12:37:53.177Z,1.30
2023-09-25T12:40:19.877Z,1.20
2023-09-25T12:42:53.565Z,1.00
2023-09-25T12:45:22.879Z,1.10
2023-09-25T12:47:50.297Z,1.17
2023-09-25T12:50:16.921Z,1.00
2023-09-25T12:52:43.486Z,1.10
2023-09-25T12:55:10.356Z,1.27
2023-09-25T12:57:37.338Z,1.13
2023-09-25T13:00:05.886Z,1.20
2023-09-25T13:02:33.029Z,1.10
2023-09-25T13:04:59.796Z,1.63
2023-09-25T13:07:26.514Z,1.17
2023-09-25T13:09:53.289Z,1.10
2023-09-25T13:12:20.043Z,1.10
2023-09-25T13:14:46.718Z,0.97
2023-09-25T13:17:13.832Z,0.90
2023-09-25T13:19:43.141Z,1.30
2023-09-25T13:22:28.899Z,1.00
2023-09-25T13:24:58.982Z,0.70
2023-09-25T13:27:25.924Z,1.10
2023-09-25T13:29:52.932Z,0.80
2023-09-25T13:32:19.595Z,0.87
2023-09-25T13:34:46.232Z,1.00
2023-09-25T13:37:12.919Z,1.10
2023-09-25T13:39:40.877Z,0.87
2023-09-25T13:42:07.568Z,1.30
2023-09-25T13:44:35.192Z,1.10
2023-09-25T13:47:01.912Z,1.20
2023-09-25T13:49:28.671Z,1.10
2023-09-25T13:51:56.491Z,1.00
2023-09-25T13:54:23.181Z,0.90
2023-09-25T13:56:49.778Z,0.80
2023-09-25T13:59:18.193Z,1.10
2023-09-25T14:01:48.129Z,0.90
2023-09-25T14:04:15.376Z,1.00
2023-09-25T14:06:42.969Z,1.10
2023-09-25T14:09:10.125Z,1.10
2023-09-25T14:11:37.536Z,0.90
2023-09-25T14:14:04.508Z,1.10
2023-09-25T14:16:31.617Z,1.03
2023-09-25T14:18:58.378Z,1.20
2023-09-25T14:21:25.218Z,0.93
2023-09-25T14:23:52.218Z,1.10
2023-09-25T14:26:19.122Z,1.03
2023-09-25T14:28:46.194Z,1.10
2023-09-25T14:31:13.238Z,0.90
2023-09-25T14:33:47.895Z,0.90
2023-09-25T14:36:14.724Z,1.20
2023-09-25T14:38:41.387Z,1.00
2023-09-25T14:41:08.498Z,1.00
2023-09-25T14:43:35.155Z,1.30
2023-09-25T14:46:02.160Z,1.13
2023-09-25T14:48:29.117Z,1.00
2023-09-25T14:50:57.401Z,1.03
2023-09-25T14:53:24.174Z,1.20
2023-09-25T14:55:56.923Z,1.00
2023-09-25T14:58:24.316Z,1.00
2023-09-25T15:01:00.433Z,1.30
2023-09-25T15:03:28.440Z,1.13
2023-09-25T15:05:56.096Z,0.97
2023-09-25T15:08:26.622Z,1.20
2023-09-25T15:10:54.698Z,1.10
2023-09-25T15:13:21.715Z,1.10
2023-09-25T15:15:51.547Z,1.17
2023-09-25T15:18:18.639Z,1.00
2023-09-25T15:20:45.255Z,0.90
2023-09-25T15:23:12.220Z,1.10
2023-09-25T15:25:39.238Z,1.00
2023-09-25T15:28:06.609Z,0.90
2023-09-25T15:30:33.425Z,1.00
2023-09-25T15:33:00.175Z,1.07
2023-09-25T15:35:27.848Z,1.13
2023-09-25T15:37:54.439Z,0.80
2023-09-25T15:40:24.470Z,0.90
2023-09-25T15:42:52.821Z,0.90
2023-09-25T15:45:20.298Z,0.80
2023-09-25T15:47:47.250Z,0.90
2023-09-25T15:50:14.123Z,1.10
2023-09-25T15:52:40.828Z,0.87
2023-09-25T15:55:07.921Z,1.00
2023-09-25T15:57:34.747Z,0.90
2023-09-25T16:00:01.453Z,1.20
2023-09-25T16:02:28.643Z,1.27
2023-09-25T16:04:55.369Z,1.17
2023-09-25T16:07:22.188Z,1.77
2023-09-25T16:09:48.837Z,1.20
2023-09-25T16:12:15.514Z,1.10
2023-09-25T16:14:42.307Z,1.20
2023-09-25T16:17:11.660Z,2.27
2023-09-25T16:19:38.598Z,1.97
2023-09-25T16:22:05.332Z,1.53
2023-09-25T16:24:32.046Z,1.87
2023-09-25T16:26:58.757Z,2.00
2023-09-25T16:29:25.775Z,1.80
2023-09-25T16:31:52.808Z,1.63
2023-09-25T16:34:19.515Z,1.80
2023-09-25T16:36:46.252Z,1.87
2023-09-25T16:39:13.346Z,1.90
2023-09-25T16:41:40.125Z,2.00
2023-09-25T16:44:07.123Z,1.80
2023-09-25T16:46:35.112Z,1.90
2023-09-25T16:49:02.155Z,1.90
2023-09-25T16:51:28.775Z,2.10
2023-09-25T16:53:55.467Z,2.90
2023-09-25T16:56:22.136Z,2.20
2023-09-25T16:58:48.783Z,2.80
2023-09-25T17:01:15.590Z,2.00
2023-09-25T17:03:42.495Z,2.20
2023-09-25T17:06:09.367Z,2.13
2023-09-25T17:08:36.298Z,2.50
2023-09-25T17:11:03.013Z,2.23
2023-09-25T17:13:31.031Z,2.27
2023-09-25T17:15:58.758Z,2.23
2023-09-25T17:18:25.564Z,3.27
2023-09-25T17:20:52.617Z,2.20
2023-09-25T17:23:19.385Z,2.37
2023-09-25T17:25:48.734Z,2.30
2023-09-25T17:28:15.409Z,2.47
2023-09-25T17:30:51.619Z,1.90
2023-09-25T17:33:25.897Z,1.97
2023-09-25T17:35:53.597Z,2.50
2023-09-25T17:38:21.088Z,3.43
2023-09-25T17:40:48.751Z,2.70
2023-09-25T17:43:15.586Z,2.97
2023-09-25T17:45:42.230Z,2.80
2023-09-25T17:48:08.941Z,2.83
2023-09-25T17:50:35.677Z,5.73
2023-09-25T17:53:02.339Z,10.13
2023-09-25T17:55:29.035Z,9.60
2023-09-25T17:57:55.651Z,7.97
2023-09-25T18:00:24.279Z,8.03
2023-09-25T18:02:51.532Z,9.40
2023-09-25T18:05:18.221Z,11.30
2023-09-25T18:07:44.866Z,10.73
2023-09-25T18:10:11.522Z,11.33
2023-09-25T18:12:42.115Z,10.90
2023-09-25T18:15:10.384Z,9.67
2023-09-25T18:17:37.045Z,8.67
2023-09-25T18:20:05.474Z,7.90
2023-09-25T18:22:33.012Z,5.80
2023-09-25T18:24:59.972Z,5.80
2023-09-25T18:27:30.808Z,6.30
2023-09-25T18:29:57.700Z,6.23
2023-09-25T18:32:24.377Z,5.23
2023-09-25T18:34:50.992Z,5.50
2023-09-25T18:37:17.959Z,5.43
2023-09-25T18:39:44.690Z,5.40
2023-09-25T18:42:11.351Z,5.80
2023-09-25T18:44:38.524Z,6.17
2023-09-25T18:47:05.558Z,5.77
2023-09-25T18:49:32.301Z,5.77
2023-09-25T18:51:58.904Z,5.37
2023-09-25T18:54:25.971Z,6.00
2023-09-25T18:56:53.993Z,4.80
2023-09-25T18:59:20.638Z,5.17
2023-09-25T19:01:47.399Z,5.27
2023-09-25T19:04:14.067Z,4.77
2023-09-25T19:06:40.743Z,5.60
2023-09-25T19:09:07.391Z,5.13
2023-09-25T19:11:34.038Z,4.93
2023-09-25T19:14:00.661Z,5.27
2023-09-25T19:16:27.535Z,5.43
2023-09-25T19:18:57.892Z,5.33
2023-09-25T19:21:28.742Z,5.90
2023-09-25T19:23:56.731Z,5.03
2023-09-25T19:26:24.760Z,4.93
2023-09-25T19:28:51.393Z,5.30
2023-09-25T19:31:38.152Z,4.43
2023-09-25T19:34:04.814Z,5.13
2023-09-25T19:36:31.758Z,5.00
2023-09-25T19:38:58.679Z,4.40
2023-09-25T19:41:25.310Z,4.10
2023-09-25T19:43:53.313Z,4.47
2023-09-25T19:46:20.419Z,4.87
2023-09-25T19:48:47.651Z,4.47
2023-09-25T19:51:14.668Z,4.80
2023-09-25T19:53:41.631Z,4.43
2023-09-25T19:56:08.324Z,4.40
2023-09-25T19:58:35.143Z,4.27
2023-09-25T20:01:12.569Z,4.17
2023-09-25T20:03:40.443Z,3.80
2023-09-25T20:06:07.312Z,4.70
2023-09-25T20:08:33.950Z,4.00
2023-09-25T20:11:03.692Z,3.93
2023-09-25T20:13:30.379Z,4.00
2023-09-25T20:15:57.381Z,4.00
2023-09-25T20:18:25.239Z,4.60
2023-09-25T20:20:56.327Z,5.20
2023-09-25T20:23:24.809Z,4.97
2023-09-25T20:25:51.755Z,5.60
2023-09-25T20:28:18.815Z,5.17
2023-09-25T20:30:46.070Z,5.47
2023-09-25T20:33:12.746Z,4.47
2023-09-25T20:35:39.414Z,5.17
2023-09-25T20:38:06.215Z,5.30
2023-09-25T20:40:32.951Z,5.40
2023-09-25T20:42:59.746Z,5.10
2023-09-25T20:45:27.563Z,5.23
2023-09-25T20:47:55.801Z,4.30
2023-09-25T20:50:27.391Z,4.27
2023-09-25T20:52:54.804Z,4.50
2023-09-25T20:55:21.629Z,3.70
2023-09-25T20:57:49.319Z,3.60
2023-09-25T21:00:16.648Z,4.23
2023-09-25T21:02:43.714Z,3.80
2023-09-25T21:05:11.190Z,4.50
2023-09-25T21:07:38.246Z,4.60
2023-09-25T21:10:05.648Z,4.63
2023-09-25T21:12:32.393Z,4.20
2023-09-25T21:14:59.100Z,4.50
2023-09-25T21:17:25.900Z,4.10
2023-09-25T21:19:52.728Z,4.23
2023-09-25T21:22:19.852Z,4.37
2023-09-25T21:24:48.000Z,3.90
2023-09-25T21:27:14.850Z,3.80
2023-09-25T21:29:41.615Z,4.30
2023-09-25T21:32:08.370Z,3.63
2023-09-25T21:34:36.090Z,4.50
2023-09-25T21:37:03.025Z,4.57
2023-09-25T21:39:29.923Z,3.73
2023-09-25T21:41:57.193Z,4.33
2023-09-25T21:44:24.967Z,4.07
2023-09-25T21:46:51.695Z,4.13
2023-09-25T21:49:18.459Z,4.30
2023-09-25T21:51:45.353Z,4.10
2023-09-25T21:54:12.525Z,4.03
2023-09-25T21:56:39.316Z,4.27
2023-09-25T21:59:06.370Z,4.33
2023-09-25T22:01:33.274Z,4.20
2023-09-25T22:04:00.230Z,4.77
2023-09-25T22:06:26.914Z,3.80
2023-09-25T22:08:53.744Z,4.07
2023-09-25T22:11:20.440Z,4.20
2023-09-25T22:13:49.258Z,3.70
2023-09-25T22:16:16.322Z,4.57
2023-09-25T22:18:43.342Z,3.77
2023-09-25T22:21:15.137Z,4.10
2023-09-25T22:23:43.818Z,3.87
2023-09-25T22:26:11.406Z,3.67
2023-09-25T22:28:39.473Z,3.77
2023-09-25T22:31:20.101Z,3.90
2023-09-25T22:33:48.574Z,4.10
2023-09-25T22:36:16.847Z,4.80
2023-09-25T22:38:43.508Z,4.13
2023-09-25T22:41:10.306Z,4.30
2023-09-25T22:43:36.967Z,4.27
2023-09-25T22:46:03.784Z,4.13
2023-09-25T22:48:33.060Z,3.97
2023-09-25T22:50:59.771Z,4.13
2023-09-25T22:53:26.399Z,3.80
2023-09-25T22:55:53.359Z,3.93
2023-09-25T22:58:19.989Z,4.50
2023-09-25T23:00:52.847Z,4.27
2023-09-25T23:03:20.792Z,4.10
2023-09-25T23:05:47.794Z,5.03
2023-09-25T23:08:14.699Z,4.20
2023-09-25T23:10:41.422Z,3.87
2023-09-25T23:13:08.222Z,4.50
2023-09-25T23:15:34.914Z,4.90
2023-09-25T23:18:01.615Z,4.70
2023-09-25T23:20:28.311Z,5.10
2023-09-25T23:22:58.348Z,4.10
2023-09-25T23:25:27.290Z,4.17
2023-09-25T23:27:54.706Z,4.03
2023-09-25T23:30:22.803Z,4.60
2023-09-25T23:32:51.281Z,4.57
2023-09-25T23:35:18.758Z,4.30
2023-09-25T23:37:47.672Z,4.50
2023-09-25T23:40:34.222Z,4.70
2023-09-25T23:43:00.926Z,4.67
2023-09-25T23:45:27.863Z,4.33
2023-09-25T23:47:54.584Z,4.37
2023-09-25T23:50:21.327Z,4.73
2023-09-25T23:52:48.426Z,4.70
2023-09-25T23:55:15.912Z,4.50
2023-09-25T23:57:42.840Z,5.00
